Time;durP1;ratioP1;P1;durP2;ratioP2;P2;SDS_P1;SDS_P2;PMS_P1;PMS_P2;Temp;Humidity;BMP_temperature;BMP_pressure;BME280_temperature;BME280_humidity;BME280_pressure;Samples;Min_cycle;Max_cycle;Signal;HPM_P1;HPM_P2
2021/10/13 00:00:27;;;;;;;32.48;18.30;;;;;;;3.12;90.93;97352.57;1788615;79;21013;-76
2021/10/13 00:02:56;;;;;;;36.40;18.37;;;;;;;3.06;91.23;97352.18;1788891;80;21399;-76
2021/10/13 00:05:22;;;;;;;33.70;17.77;;;;;;;3.05;90.60;97351.77;1772458;80;21423;-76
2021/10/13 00:07:49;;;;;;;32.98;17.73;;;;;;;3.04;91.92;97350.03;1789268;80;21006;-76
2021/10/13 00:10:15;;;;;;;32.13;17.15;;;;;;;3.03;90.78;97350.89;1788496;80;20978;-76
2021/10/13 00:12:41;;;;;;;33.40;17.55;;;;;;;3.02;91.01;97349.16;1788726;80;21006;-76
2021/10/13 00:15:11;;;;;;;33.98;18.23;;;;;;;3.01;91.19;97352.24;1788517;80;21003;-76
2021/10/13 00:17:38;;;;;;;32.78;17.10;;;;;;;3.00;91.13;97349.63;1793295;80;21442;-76
2021/10/13 00:20:06;;;;;;;32.20;17.62;;;;;;;3.01;90.76;97347.44;1774526;80;20959;-76
2021/10/13 00:22:32;;;;;;;36.85;18.75;;;;;;;3.03;90.59;97341.30;1757728;82;21464;-76
2021/10/13 00:24:59;;;;;;;31.60;17.10;;;;;;;3.08;90.66;97341.70;1773584;80;20967;-76
2021/10/13 00:27:26;;;;;;;34.05;17.02;;;;;;;3.08;90.15;97335.16;1789408;79;20958;-76
2021/10/13 00:29:53;;;;;;;27.70;15.85;;;;;;;3.08;90.31;97341.27;1789111;80;21046;-76
2021/10/13 00:32:20;;;;;;;31.68;15.83;;;;;;;3.09;90.15;97336.45;1788465;80;21118;-77
2021/10/13 00:34:46;;;;;;;31.62;16.10;;;;;;;3.07;90.09;97326.88;1789219;79;21001;-77
2021/10/13 00:37:12;;;;;;;28.55;14.85;;;;;;;3.05;90.07;97319.03;1789229;80;21017;-76
2021/10/13 00:39:39;;;;;;;26.87;14.68;;;;;;;3.08;90.23;97322.06;1772642;81;21499;-77
2021/10/13 00:42:05;;;;;;;29.02;15.72;;;;;;;3.07;90.28;97310.71;1788441;80;21042;-76
2021/10/13 00:44:32;;;;;;;25.43;15.00;;;;;;;3.10;90.50;97310.69;1788733;80;20974;-77
2021/10/13 00:47:00;;;;;;;27.77;14.78;;;;;;;3.13;90.38;97318.95;1757535;80;20950;-77
2021/10/13 00:49:27;;;;;;;25.57;14.03;;;;;;;3.15;90.50;97318.05;1793095;80;21554;-76
2021/10/13 00:51:54;;;;;;;28.25;14.93;;;;;;;3.13;90.27;97322.88;1799652;80;21450;-76
2021/10/13 00:54:24;;;;;;;28.10;14.70;;;;;;;3.10;90.41;97325.52;1799988;80;21463;-77
2021/10/13 00:56:51;;;;;;;28.38;14.43;;;;;;;3.07;90.57;97327.73;1779869;81;20969;-77
2021/10/13 00:59:17;;;;;;;29.65;14.25;;;;;;;3.05;90.47;97332.13;1792550;80;21006;-77
2021/10/13 01:02:09;;;;;;;26.52;15.25;;;;;;;3.00;90.17;97333.47;1775082;81;21034;-77
2021/10/13 01:05:02;;;;;;;26.87;14.65;;;;;;;2.93;90.44;97331.80;1775713;81;20994;-76
2021/10/13 01:08:01;;;;;;;32.05;15.63;;;;;;;2.88;90.09;97331.86;1775960;81;20963;-76
2021/10/13 01:10:58;;;;;;;25.40;14.75;;;;;;;2.83;90.29;97321.00;1774409;79;20995;-76
2021/10/13 01:13:39;;;;;;;26.70;14.35;;;;;;;2.75;89.94;97328.92;1773640;80;21439;-76
2021/10/13 01:16:14;;;;;;;28.02;15.00;;;;;;;2.68;89.72;97329.42;1740151;82;21417;-76
2021/10/13 01:19:00;;;;;;;25.12;14.20;;;;;;;2.62;89.62;97333.41;1790456;80;20985;-76
2021/10/13 01:22:12;;;;;;;27.95;14.35;;;;;;;2.56;89.43;97324.27;1791101;80;21007;-76
2021/10/13 01:25:18;;;;;;;26.45;14.43;;;;;;;2.50;89.28;97331.75;1793969;79;20920;-76
2021/10/13 01:27:58;;;;;;;29.65;15.63;;;;;;;2.39;89.24;97325.29;1782408;77;21473;-76
2021/10/13 01:30:31;;;;;;;28.00;15.32;;;;;;;2.36;89.44;97334.45;1792524;80;21003;-76
2021/10/13 01:33:08;;;;;;;26.52;15.40;;;;;;;2.31;90.06;97333.19;1785899;80;21432;-76
2021/10/13 01:35:39;;;;;;;32.83;15.68;;;;;;;2.30;90.99;97338.43;1791592;80;21074;-76
2021/10/13 01:38:11;;;;;;;32.08;16.00;;;;;;;2.29;90.02;97342.81;1792162;80;20996;-76
2021/10/13 01:40:39;;;;;;;29.30;14.90;;;;;;;2.28;89.96;97337.58;1792269;80;20952;-76
2021/10/13 01:43:06;;;;;;;27.45;14.30;;;;;;;2.26;89.78;97338.02;1792310;80;21004;-75
2021/10/13 01:45:33;;;;;;;27.85;16.10;;;;;;;2.23;89.92;97341.09;1790492;80;20941;-76
2021/10/13 01:48:02;;;;;;;30.17;15.48;;;;;;;2.23;89.80;97335.86;1791246;80;21066;-76
2021/10/13 01:50:29;;;;;;;29.42;15.13;;;;;;;2.21;89.71;97333.68;1790576;79;21055;-75
2021/10/13 01:52:56;;;;;;;30.55;16.12;;;;;;;2.19;89.88;97330.22;1790667;80;21001;-76
2021/10/13 01:55:26;;;;;;;29.90;15.63;;;;;;;2.20;90.59;97331.10;1790698;80;20984;-76
2021/10/13 01:57:56;;;;;;;28.27;15.38;;;;;;;2.24;89.98;97337.59;1790749;80;20969;-81
2021/10/13 02:00:23;;;;;;;26.05;14.65;;;;;;;2.28;90.56;97346.28;1790621;80;21026;-82
2021/10/13 02:02:52;;;;;;;29.23;15.15;;;;;;;2.29;90.59;97341.50;1794758;79;20984;-82
2021/10/13 02:05:25;;;;;;;27.32;14.63;;;;;;;2.30;90.43;97338.43;1808087;79;21043;-82
2021/10/13 02:07:56;;;;;;;27.48;14.75;;;;;;;2.31;90.20;97350.62;1824328;79;20953;-81
2021/10/13 02:10:25;;;;;;;27.35;14.43;;;;;;;2.34;90.62;97338.84;1810443;79;21469;-82
2021/10/13 02:12:56;;;;;;;26.95;14.13;;;;;;;2.32;90.43;97345.84;1778360;80;21059;-82
2021/10/13 02:15:29;;;;;;;26.57;14.55;;;;;;;2.32;90.27;97342.77;1794038;79;20945;-82
2021/10/13 02:18:02;;;;;;;23.32;12.45;;;;;;;2.32;90.51;97338.84;1810777;79;21016;-82
2021/10/13 02:20:31;;;;;;;23.85;13.28;;;;;;;2.34;90.53;97333.61;1814231;79;21007;-83
2021/10/13 02:23:03;;;;;;;25.57;13.38;;;;;;;2.34;90.39;97337.11;1793211;79;20976;-82
2021/10/13 02:25:37;;;;;;;25.10;13.83;;;;;;;2.35;90.32;97335.34;1792549;80;20992;-83
2021/10/13 02:28:09;;;;;;;24.37;13.43;;;;;;;2.32;90.49;97329.69;1792507;80;21417;-82
2021/10/13 02:30:40;;;;;;;29.05;13.62;;;;;;;2.34;90.62;97334.48;1792658;80;21434;-82
2021/10/13 02:33:07;;;;;;;25.95;14.87;;;;;;;2.33;90.36;97338.42;1794693;78;21492;-80
2021/10/13 02:35:35;;;;;;;25.55;15.30;;;;;;;2.32;90.45;97340.15;1791812;80;21052;-82
2021/10/13 02:38:04;;;;;;;24.43;13.62;;;;;;;2.31;90.39;97345.39;1791327;80;20977;-82
2021/10/13 02:40:40;;;;;;;22.00;13.03;;;;;;;2.24;90.09;97349.78;1791034;80;21108;-83
2021/10/13 02:43:09;;;;;;;28.17;13.28;;;;;;;2.18;90.17;97351.14;1814371;79;20936;-82
2021/10/13 02:45:41;;;;;;;27.13;14.68;;;;;;;2.09;90.40;97347.73;1792664;79;20976;-82
2021/10/13 02:48:21;;;;;;;24.20;13.35;;;;;;;2.03;89.84;97353.42;1792377;80;21355;-83
2021/10/13 02:51:08;;;;;;;31.17;15.05;;;;;;;2.00;90.04;97359.55;1788806;79;21016;-83
2021/10/13 02:54:06;;;;;;;27.67;13.90;;;;;;;1.97;89.97;97360.42;1795778;79;21093;-84
2021/10/13 02:56:40;;;;;;;32.23;14.18;;;;;;;1.94;90.35;97365.66;1811498;79;20999;-82
2021/10/13 02:59:13;;;;;;;29.48;15.40;;;;;;;1.92;90.33;97361.31;1792449;79;20984;-82
2021/10/13 03:01:44;;;;;;;25.15;14.07;;;;;;;1.90;90.56;97362.63;1791897;79;20999;-81
2021/10/13 03:04:20;;;;;;;28.10;14.13;;;;;;;1.86;91.08;97367.44;1794834;79;21050;-82
2021/10/13 03:06:59;;;;;;;25.77;13.38;;;;;;;1.86;90.76;97368.73;1796799;79;20972;-82
2021/10/13 03:09:33;;;;;;;24.72;13.32;;;;;;;1.84;90.23;97371.35;1813915;79;20973;-82
2021/10/13 03:12:04;;;;;;;25.20;13.98;;;;;;;1.80;90.28;97371.39;1825140;79;21442;-82
2021/10/13 03:14:33;;;;;;;26.30;14.05;;;;;;;1.79;90.14;97373.13;1823197;79;21489;-82
2021/10/13 03:17:05;;;;;;;27.22;13.93;;;;;;;1.76;90.67;97374.46;1761285;81;20979;-82
2021/10/13 03:19:39;;;;;;;26.33;13.83;;;;;;;1.74;90.17;97377.95;1761462;81;20988;-82
2021/10/13 03:22:12;;;;;;;26.23;14.25;;;;;;;1.73;90.11;97378.84;1761206;80;21051;-82
2021/10/13 03:24:42;;;;;;;22.98;13.40;;;;;;;1.73;90.33;97375.77;1773704;80;21015;-82
2021/10/13 03:27:11;;;;;;;22.90;13.43;;;;;;;1.75;90.27;97372.73;1797692;79;20952;-82
2021/10/13 03:29:47;;;;;;;24.40;12.88;;;;;;;1.79;90.45;97374.88;1792419;79;20988;-82
2021/10/13 03:32:20;;;;;;;25.32;13.20;;;;;;;1.82;90.42;97371.81;1792879;79;21346;-82
2021/10/13 03:34:50;;;;;;;20.45;12.45;;;;;;;1.78;90.42;97374.00;1825010;79;20985;-81
2021/10/13 03:37:19;;;;;;;21.40;12.03;;;;;;;1.77;90.41;97372.70;1824308;79;21002;-81
2021/10/13 03:39:50;;;;;;;22.82;12.37;;;;;;;1.75;90.25;97372.73;1824675;79;20999;-83
2021/10/13 03:42:21;;;;;;;28.77;13.80;;;;;;;1.73;90.54;97378.37;1824409;79;21031;-82
2021/10/13 03:44:50;;;;;;;23.50;13.32;;;;;;;1.71;90.53;97378.84;1822117;79;20988;-81
2021/10/13 03:47:18;;;;;;;22.07;12.55;;;;;;;1.68;90.46;97375.80;1792390;80;21401;-81
2021/10/13 03:49:46;;;;;;;22.35;12.78;;;;;;;1.66;90.72;97378.84;1762064;81;21448;-82
2021/10/13 03:52:13;;;;;;;22.67;12.47;;;;;;;1.67;90.95;97382.33;1761331;81;20964;-82
2021/10/13 03:54:43;;;;;;;21.12;12.20;;;;;;;1.67;90.66;97380.56;1762004;80;21024;-83
2021/10/13 03:57:12;;;;;;;23.77;12.80;;;;;;;1.63;90.79;97383.21;1782434;80;21012;-83
2021/10/13 03:59:43;;;;;;;24.95;12.40;;;;;;;1.57;90.48;97387.59;1792091;80;21096;-83
2021/10/13 04:02:12;;;;;;;23.12;12.50;;;;;;;1.51;90.30;97371.95;1767189;80;20999;-82
2021/10/13 04:04:39;;;;;;;27.20;13.55;;;;;;;1.46;91.04;97378.92;1776285;80;21541;-83
2021/10/13 04:07:07;;;;;;;23.52;12.65;;;;;;;1.42;90.40;97378.05;1769138;80;20976;-82
2021/10/13 04:09:35;;;;;;;22.93;13.18;;;;;;;1.37;90.90;97381.56;1762567;80;21414;-83
2021/10/13 04:12:03;;;;;;;22.40;11.68;;;;;;;1.35;90.68;97376.77;1764559;80;20952;-83
2021/10/13 04:14:29;;;;;;;24.32;13.13;;;;;;;1.31;91.00;97378.52;1767857;80;21020;-83
2021/10/13 04:16:56;;;;;;;25.68;12.63;;;;;;;1.28;91.05;97385.05;1762087;81;20916;-84
2021/10/13 04:19:23;;;;;;;25.62;11.90;;;;;;;1.25;92.06;97391.14;1759532;81;21378;-84
2021/10/13 04:21:50;;;;;;;25.80;13.10;;;;;;;1.26;91.41;97395.94;1753304;82;21430;-83
2021/10/13 04:24:17;;;;;;;25.25;12.88;;;;;;;1.20;92.15;97394.66;1756312;82;21003;-83
2021/10/13 04:26:43;;;;;;;24.18;13.72;;;;;;;1.22;91.08;97392.89;1753146;82;20996;-83
2021/10/13 04:29:10;;;;;;;25.05;12.82;;;;;;;1.23;91.45;97392.90;1797152;79;21536;-83
2021/10/13 04:31:39;;;;;;;23.02;12.35;;;;;;;1.24;91.98;97395.09;1810728;79;20976;-83
2021/10/13 04:34:05;;;;;;;25.40;12.18;;;;;;;1.25;91.46;97391.14;1792420;80;21047;-83
2021/10/13 04:36:32;;;;;;;23.85;12.23;;;;;;;1.30;91.38;97397.67;1770327;80;21426;-83
2021/10/13 04:38:58;;;;;;;20.50;11.65;;;;;;;1.35;91.69;97385.48;1759980;81;20952;-83
2021/10/13 04:41:24;;;;;;;22.90;12.13;;;;;;;1.40;91.58;97386.75;1785584;80;21003;-77
2021/10/13 04:43:51;;;;;;;21.82;11.80;;;;;;;1.41;91.44;97389.37;1776971;80;20952;-77
2021/10/13 04:46:17;;;;;;;22.67;11.95;;;;;;;1.48;91.64;97394.56;1779026;80;21411;-77
2021/10/13 04:48:43;;;;;;;21.95;12.05;;;;;;;1.58;91.83;97395.00;1794448;80;20976;-76
2021/10/13 04:51:10;;;;;;;24.77;12.25;;;;;;;1.62;91.41;97399.77;1788805;80;21099;-76
2021/10/13 04:53:36;;;;;;;22.58;11.48;;;;;;;1.66;91.59;97397.13;1788405;80;20988;-76
2021/10/13 04:56:03;;;;;;;24.00;12.23;;;;;;;1.71;91.38;97399.28;1784049;80;20965;-76
2021/10/13 04:58:30;;;;;;;22.77;12.65;;;;;;;1.74;91.43;97401.47;1786343;80;22130;-77
2021/10/13 05:00:56;;;;;;;23.30;12.68;;;;;;;1.75;91.26;97408.42;1773319;81;21006;-77
2021/10/13 05:03:23;;;;;;;24.57;12.68;;;;;;;1.77;91.28;97409.27;1772741;81;20963;-77
2021/10/13 05:05:49;;;;;;;26.37;13.13;;;;;;;1.77;91.01;97406.66;1771981;81;21388;-77
2021/10/13 05:08:16;;;;;;;22.65;12.45;;;;;;;1.75;90.92;97413.22;1771680;81;20975;-77
2021/10/13 05:10:42;;;;;;;26.75;12.90;;;;;;;1.75;90.74;97404.08;1790877;80;20986;-77
2021/10/13 05:13:09;;;;;;;24.00;12.68;;;;;;;1.78;91.19;97410.58;1735746;81;21361;-77
2021/10/13 05:15:35;;;;;;;23.57;12.73;;;;;;;1.83;91.11;97414.50;1796609;80;21043;-78
2021/10/13 05:18:02;;;;;;;22.07;12.88;;;;;;;1.87;91.21;97410.97;1798334;79;20961;-76
2021/10/13 05:20:29;;;;;;;25.88;13.80;;;;;;;1.92;91.61;97418.81;1797712;80;20976;-78
2021/10/13 05:22:55;;;;;;;25.23;12.90;;;;;;;1.97;91.20;97416.62;1760446;81;21481;-76
2021/10/13 05:25:22;;;;;;;20.37;11.43;;;;;;;1.98;91.18;97409.20;1791005;80;21402;-77
2021/10/13 05:27:48;;;;;;;23.00;12.47;;;;;;;2.01;91.06;97411.36;1819029;79;20968;-77
2021/10/13 05:30:15;;;;;;;27.40;13.25;;;;;;;2.06;91.09;97410.47;1803057;79;21517;-77
2021/10/13 05:32:41;;;;;;;24.15;12.07;;;;;;;2.11;91.21;97406.52;1795522;79;20988;-77
2021/10/13 05:35:08;;;;;;;22.02;12.47;;;;;;;2.13;90.94;97409.13;1794138;80;20973;-76
2021/10/13 05:37:34;;;;;;;25.55;12.85;;;;;;;2.16;91.05;97411.27;1813928;79;21451;-77
2021/10/13 05:40:05;;;;;;;25.08;13.22;;;;;;;2.20;91.10;97413.00;1813717;79;21390;-77
2021/10/13 05:42:32;;;;;;;24.12;13.15;;;;;;;2.23;91.21;97406.45;1813533;79;21042;-77
2021/10/13 05:45:02;;;;;;;41.42;21.00;;;;;;;2.27;91.14;97416.45;1813584;79;20982;-77
2021/10/13 05:47:31;;;;;;;28.25;13.83;;;;;;;2.27;90.94;97412.95;1813612;79;21386;-77
2021/10/13 05:49:57;;;;;;;22.73;11.68;;;;;;;2.30;90.76;97422.10;1799086;79;20965;-79
2021/10/13 05:52:24;;;;;;;19.95;11.93;;;;;;;2.32;90.76;97419.06;1789126;79;21410;-78
2021/10/13 05:54:50;;;;;;;22.55;12.35;;;;;;;2.35;91.66;97427.75;1789099;79;21039;-79
2021/10/13 05:57:17;;;;;;;23.15;12.58;;;;;;;2.38;91.20;97422.48;1790330;79;20963;-80
2021/10/13 05:59:46;;;;;;;23.22;13.00;;;;;;;2.46;91.21;97428.12;1764680;80;22032;-80
2021/10/13 06:02:11;;;;;;;20.10;11.18;;;;;;;2.52;90.86;97428.07;1782813;80;20973;-80
2021/10/13 06:04:37;;;;;;;21.37;11.50;;;;;;;2.59;91.07;97424.55;1765138;80;21063;-80
2021/10/13 06:07:04;;;;;;;24.23;12.40;;;;;;;2.68;91.52;97418.38;1782129;79;20942;-80
2021/10/13 06:09:30;;;;;;;21.37;12.15;;;;;;;2.75;91.49;97426.59;1764597;80;20999;-78
2021/10/13 06:11:57;;;;;;;23.77;12.98;;;;;;;2.81;91.14;97423.50;1793002;79;21364;-80
2021/10/13 06:14:23;;;;;;;23.32;11.80;;;;;;;2.87;91.22;97419.09;1817579;79;20973;-80
2021/10/13 06:16:50;;;;;;;20.40;11.55;;;;;;;2.93;90.98;97419.92;1771772;80;20980;-80
2021/10/13 06:19:16;;;;;;;21.05;11.93;;;;;;;2.99;91.42;97428.59;1817256;79;20988;-79
2021/10/13 06:21:43;;;;;;;23.27;11.63;;;;;;;3.05;90.87;97425.06;1800435;79;20920;-80
2021/10/13 06:24:09;;;;;;;24.60;13.15;;;;;;;3.13;92.06;97432.85;1765558;80;20987;-80
2021/10/13 06:26:36;;;;;;;21.37;11.55;;;;;;;3.20;91.06;97434.52;1764745;81;21108;-80
2021/10/13 06:29:02;;;;;;;20.55;12.20;;;;;;;3.29;91.25;97443.60;1781916;80;20988;-80
2021/10/13 06:31:29;;;;;;;22.13;11.30;;;;;;;3.36;91.47;97439.18;1777323;80;20978;-79
2021/10/13 06:33:56;;;;;;;20.32;11.80;;;;;;;3.41;90.76;97434.77;1792101;80;21466;-81
2021/10/13 06:36:22;;;;;;;20.52;11.48;;;;;;;3.51;91.07;97447.34;1765037;80;21019;-80
2021/10/13 06:38:49;;;;;;;19.55;11.03;;;;;;;3.59;90.74;97451.62;1794446;79;20978;-79
2021/10/13 06:41:16;;;;;;;19.30;11.05;;;;;;;3.67;91.39;97458.55;1763232;81;21015;-80
2021/10/13 06:43:43;;;;;;;23.22;11.12;;;;;;;3.76;90.74;97453.63;1791467;79;21021;-79
2021/10/13 06:46:10;;;;;;;25.02;13.15;;;;;;;3.85;90.55;97455.27;1790160;80;21018;-80
2021/10/13 06:48:36;;;;;;;24.87;12.75;;;;;;;3.95;90.45;97445.56;1814784;79;21005;-80
2021/10/13 06:51:03;;;;;;;26.90;12.63;;;;;;;4.04;90.47;97455.95;1815257;79;20948;-80
2021/10/13 06:53:30;;;;;;;26.75;12.65;;;;;;;4.12;90.06;97461.09;1796237;79;20998;-80
2021/10/13 06:55:57;;;;;;;20.68;13.03;;;;;;;4.22;89.87;97460.52;1800271;79;21490;-80
2021/10/13 06:58:23;;;;;;;24.07;13.78;;;;;;;4.29;89.59;97456.06;1778891;79;21341;-81
2021/10/13 07:00:50;;;;;;;21.60;12.65;;;;;;;4.39;89.70;97460.30;1805083;79;21316;-81
2021/10/13 07:03:16;;;;;;;26.07;13.68;;;;;;;4.47;89.83;97457.14;1797810;79;20974;-81
2021/10/13 07:05:44;;;;;;;24.55;14.03;;;;;;;4.57;89.58;97457.02;1823644;78;21432;-80
2021/10/13 07:08:10;;;;;;;25.00;14.63;;;;;;;4.67;89.98;97461.23;1823899;79;21482;-79
2021/10/13 07:10:37;;;;;;;28.40;14.20;;;;;;;4.77;89.36;97464.58;1823612;78;20974;-81
2021/10/13 07:13:04;;;;;;;24.70;14.33;;;;;;;4.86;89.35;97465.76;1802845;78;20995;-80
2021/10/13 07:15:30;;;;;;;30.82;16.67;;;;;;;4.99;89.09;97473.00;1816744;79;20996;-80
2021/10/13 07:17:57;;;;;;;25.90;15.50;;;;;;;5.12;89.12;97471.05;1789625;79;21445;-79
2021/10/13 07:20:24;;;;;;;25.70;14.78;;;;;;;5.26;89.22;97468.64;1796208;79;21545;-82
2021/10/13 07:22:51;;;;;;;20.72;13.53;;;;;;;5.40;89.10;97475.00;1784786;80;21045;-77
2021/10/13 07:25:22;;;;;;;23.52;14.23;;;;;;;5.52;89.02;97469.98;1789978;79;21082;-78
2021/10/13 07:27:46;;;;;;;22.75;13.35;;;;;;;5.66;89.20;97471.03;1797354;79;20990;-79
2021/10/13 07:30:16;;;;;;;24.30;13.93;;;;;;;5.85;89.17;97472.86;1800175;79;20984;-81
2021/10/13 07:32:41;;;;;;;24.02;12.98;;;;;;;6.01;87.88;97464.23;1790719;80;21057;-80
2021/10/13 07:35:08;;;;;;;24.55;12.90;;;;;;;6.17;88.78;97472.72;1791726;80;21447;-81
2021/10/13 07:37:35;;;;;;;22.75;13.78;;;;;;;6.33;88.80;97468.45;1797281;79;20980;-80
2021/10/13 07:40:05;;;;;;;20.25;12.40;;;;;;;6.49;88.57;97472.95;1823673;79;20990;-80
2021/10/13 07:42:33;;;;;;;22.95;13.18;;;;;;;6.66;88.53;97476.53;1818443;78;20948;-80
2021/10/13 07:45:00;;;;;;;20.08;12.73;;;;;;;6.83;88.39;97473.95;1795297;79;20971;-81
2021/10/13 07:47:27;;;;;;;22.27;12.85;;;;;;;6.94;88.29;97477.20;1762502;80;20984;-79
2021/10/13 07:49:53;;;;;;;26.55;13.08;;;;;;;7.09;87.42;97479.05;1810142;79;21045;-80
2021/10/13 07:52:20;;;;;;;20.32;12.28;;;;;;;7.22;85.31;97480.94;1758443;80;21063;-80
2021/10/13 07:54:46;;;;;;;20.23;12.07;;;;;;;7.36;86.93;97481.94;1766528;81;21092;-81
2021/10/13 07:57:13;;;;;;;17.87;11.73;;;;;;;7.48;86.21;97481.61;1782597;80;20964;-81
2021/10/13 07:59:39;;;;;;;18.05;11.30;;;;;;;7.57;86.08;97481.85;1737801;82;21027;-83
2021/10/13 08:02:06;;;;;;;18.60;11.30;;;;;;;7.69;85.08;97478.47;1767135;80;20967;-80
2021/10/13 08:04:33;;;;;;;17.62;10.63;;;;;;;7.76;85.05;97480.91;1776452;79;21381;-81
2021/10/13 08:06:59;;;;;;;18.57;10.65;;;;;;;7.85;84.00;97481.11;1778186;79;21031;-80
2021/10/13 08:09:26;;;;;;;15.93;8.98;;;;;;;7.96;82.03;97472.91;1782685;80;21068;-80
2021/10/13 08:11:52;;;;;;;19.67;10.53;;;;;;;8.09;82.01;97474.75;1756880;79;22062;-79
2021/10/13 08:14:19;;;;;;;24.72;15.80;;;;;;;8.19;80.48;97478.01;1768524;80;20949;-80
2021/10/13 08:16:45;;;;;;;30.82;17.15;;;;;;;8.29;80.95;97483.88;1781645;80;21044;-79
2021/10/13 08:19:12;;;;;;;14.63;8.15;;;;;;;8.42;78.20;97485.70;1781897;80;20973;-81
2021/10/13 08:21:38;;;;;;;12.85;7.47;;;;;;;8.56;79.33;97486.67;1781877;80;21024;-80
2021/10/13 08:24:05;;;;;;;13.93;7.35;;;;;;;8.67;76.43;97484.56;1774930;79;21521;-82
2021/10/13 08:26:31;;;;;;;12.68;7.12;;;;;;;8.84;75.99;97484.49;1783553;80;21016;-80
2021/10/13 08:28:58;;;;;;;13.38;8.18;;;;;;;9.02;74.46;97493.66;1734867;81;21023;-80
2021/10/13 08:31:24;;;;;;;10.98;7.20;;;;;;;9.23;70.55;97486.79;1783296;80;20950;-81
2021/10/13 08:33:52;;;;;;;14.13;7.10;;;;;;;9.43;74.84;97484.42;1767801;80;20998;-79
2021/10/13 08:36:22;;;;;;;10.38;6.53;;;;;;;9.60;74.75;97487.83;1783162;79;20987;-79
2021/10/13 08:38:48;;;;;;;11.97;7.20;;;;;;;9.73;70.43;97486.95;1764857;79;20975;-81
2021/10/13 08:41:15;;;;;;;11.15;6.65;;;;;;;9.84;70.76;97488.75;1781976;80;21007;-80
2021/10/13 08:43:46;;;;;;;12.43;7.40;;;;;;;9.94;70.13;97481.81;1746564;80;20983;-80
2021/10/13 08:46:12;;;;;;;12.05;7.30;;;;;;;10.04;71.86;97477.92;1783315;80;20988;-78
2021/10/13 08:48:39;;;;;;;10.68;7.00;;;;;;;10.16;73.42;97479.27;1767608;80;21500;-79
2021/10/13 08:51:07;;;;;;;9.38;6.75;;;;;;;10.25;72.53;97476.73;1782622;80;20950;-79
2021/10/13 08:53:34;;;;;;;11.63;6.83;;;;;;;10.30;71.27;97480.11;1764893;80;20952;-80
2021/10/13 08:56:02;;;;;;;10.18;6.08;;;;;;;10.31;68.10;97476.53;1764983;81;20972;-79
2021/10/13 08:58:30;;;;;;;11.70;6.72;;;;;;;10.37;70.01;97471.00;1764119;80;20991;-80
2021/10/13 09:01:12;;;;;;;8.95;6.05;;;;;;;10.46;71.23;97476.91;1732393;83;21058;-80
2021/10/13 09:03:44;;;;;;;9.55;6.05;;;;;;;10.46;65.43;97480.41;1751842;81;20966;-78
2021/10/13 09:06:18;;;;;;;9.35;5.75;;;;;;;10.45;64.43;97475.16;1764104;81;21019;-80
2021/10/13 09:09:07;;;;;;;10.10;6.12;;;;;;;10.52;68.76;97472.25;1764172;81;21034;-80
2021/10/13 09:11:44;;;;;;;10.13;5.83;;;;;;;10.58;67.70;97468.97;1764218;81;20957;-78
2021/10/13 09:14:27;;;;;;;9.15;6.10;;;;;;;10.59;67.57;97479.96;1764163;81;21487;-78
2021/10/13 09:17:05;;;;;;;10.20;6.05;;;;;;;10.65;67.63;97466.47;1764448;81;21014;-78
2021/10/13 09:19:51;;;;;;;9.58;5.60;;;;;;;10.73;66.78;97467.49;1764287;81;20994;-78
2021/10/13 09:22:19;;;;;;;15.48;7.60;;;;;;;10.76;66.36;97467.38;1764404;81;20990;-78
2021/10/13 09:24:51;;;;;;;11.28;6.92;;;;;;;10.85;67.69;97468.36;1764280;80;20995;-78
2021/10/13 09:27:30;;;;;;;9.53;5.92;;;;;;;10.90;66.99;97467.71;1765228;81;20974;-78
2021/10/13 09:30:07;;;;;;;9.58;6.37;;;;;;;10.91;65.76;97468.11;1764469;81;20967;-78
2021/10/13 09:32:43;;;;;;;9.68;6.17;;;;;;;10.91;63.96;97473.41;1765241;81;21073;-78
2021/10/13 09:35:10;;;;;;;9.55;6.45;;;;;;;10.86;63.02;97468.75;1765266;81;21034;-79
2021/10/13 09:37:47;;;;;;;9.23;5.85;;;;;;;10.90;62.74;97465.06;1735729;83;20980;-79
2021/10/13 09:40:28;;;;;;;10.05;5.90;;;;;;;10.91;63.62;97462.80;1762630;80;21010;-79
2021/10/13 09:42:58;;;;;;;11.25;5.15;;;;;;;10.96;61.64;97460.83;1783949;80;20964;-78
2021/10/13 09:45:24;;;;;;;9.65;6.25;;;;;;;11.13;65.39;97467.72;1782976;80;20969;-76
2021/10/13 09:48:04;;;;;;;8.75;5.58;;;;;;;11.28;64.25;97463.11;1783562;80;20988;-77
2021/10/13 09:50:50;;;;;;;7.92;5.25;;;;;;;11.39;60.93;97455.16;1778506;80;21016;-77
2021/10/13 09:53:23;;;;;;;7.45;5.62;;;;;;;11.47;59.92;97462.35;1782972;80;21413;-78
2021/10/13 09:55:50;;;;;;;8.48;4.95;;;;;;;11.61;62.34;97459.10;1733431;83;21032;-78
2021/10/13 09:58:30;;;;;;;8.70;5.22;;;;;;;11.68;57.01;97455.28;1775086;80;20956;-77
2021/10/13 10:01:12;;;;;;;6.45;4.15;;;;;;;11.74;52.53;97459.44;1791960;79;21532;-76
2021/10/13 10:03:43;;;;;;;7.08;4.40;;;;;;;11.75;55.87;97461.16;1789813;80;20984;-76
2021/10/13 10:06:10;;;;;;;7.17;4.00;;;;;;;11.72;50.99;97449.36;1789785;80;21003;-76
2021/10/13 10:08:59;;;;;;;7.97;4.37;;;;;;;11.74;55.75;97449.70;1789721;79;21055;-76
2021/10/13 10:11:37;;;;;;;7.05;4.33;;;;;;;11.85;55.57;97453.67;1787411;80;20956;-77
2021/10/13 10:14:25;;;;;;;6.08;4.30;;;;;;;11.97;54.67;97446.97;1792121;80;20968;-77
2021/10/13 10:16:52;;;;;;;6.00;4.20;;;;;;;11.94;52.17;97449.29;1790978;80;20980;-74
2021/10/13 10:19:24;;;;;;;7.58;4.37;;;;;;;12.06;54.47;97447.92;1792096;79;20991;-76
2021/10/13 10:22:18;;;;;;;10.38;4.72;;;;;;;12.14;55.88;97448.91;1792364;80;21389;-76
2021/10/13 10:24:52;;;;;;;9.00;4.55;;;;;;;12.20;54.29;97440.66;1793155;79;20915;-75
2021/10/13 10:27:27;;;;;;;9.73;5.08;;;;;;;12.73;56.52;97446.22;1789921;79;21030;-75
2021/10/13 10:30:13;;;;;;;6.67;4.45;;;;;;;13.41;51.14;97438.08;1789890;80;20972;-75
2021/10/13 10:32:44;;;;;;;6.90;4.90;;;;;;;14.04;48.62;97441.62;1789178;79;21027;-75
2021/10/13 10:35:17;;;;;;;6.75;4.58;;;;;;;14.69;48.31;97439.95;1790180;80;20912;-76
2021/10/13 10:37:51;;;;;;;8.28;5.40;;;;;;;14.78;46.29;97428.31;1787051;80;20972;-76
2021/10/13 10:40:32;;;;;;;8.70;4.87;;;;;;;14.24;45.23;97432.55;1761933;80;20956;-75
2021/10/13 10:43:14;;;;;;;7.87;5.30;;;;;;;14.05;49.39;97442.00;1788964;80;21000;-75
2021/10/13 10:45:54;;;;;;;8.95;5.75;;;;;;;14.01;48.61;97446.64;1788780;80;21413;-76
2021/10/13 10:48:24;;;;;;;7.72;5.10;;;;;;;14.38;47.42;97438.48;1789050;79;21449;-75
2021/10/13 10:50:57;;;;;;;8.28;5.95;;;;;;;14.71;46.25;97433.59;1788509;80;20991;-75
2021/10/13 10:53:41;;;;;;;6.80;5.22;;;;;;;15.33;45.41;97438.61;1789726;80;21032;-75
2021/10/13 10:56:27;;;;;;;8.90;5.55;;;;;;;16.73;45.30;97426.70;1789947;80;21078;-77
2021/10/13 10:59:11;;;;;;;8.53;5.10;;;;;;;16.95;45.08;97434.20;1789532;79;21007;-77
2021/10/13 11:02:02;;;;;;;6.58;5.33;;;;;;;16.46;40.55;97428.81;1789657;80;21064;-77
2021/10/13 11:04:29;;;;;;;7.08;4.65;;;;;;;17.00;43.92;97432.08;1788974;80;21055;-77
2021/10/13 11:06:58;;;;;;;7.08;5.00;;;;;;;17.72;43.81;97421.20;1789617;80;20975;-76
2021/10/13 11:09:28;;;;;;;6.97;5.17;;;;;;;17.84;37.75;97418.13;1762599;80;20980;-77
2021/10/13 11:11:54;;;;;;;6.33;5.15;;;;;;;17.99;38.83;97418.91;1791190;80;21513;-77
2021/10/13 11:14:25;;;;;;;9.23;5.90;;;;;;;18.10;35.98;97417.70;1789865;80;21090;-77
2021/10/13 11:16:57;;;;;;;10.15;5.53;;;;;;;18.50;38.86;97413.17;1761093;80;20956;-78
2021/10/13 11:19:35;;;;;;;8.25;5.20;;;;;;;18.28;38.94;97421.41;1789393;79;20976;-78
2021/10/13 11:22:09;;;;;;;6.92;5.80;;;;;;;17.78;38.51;97422.95;1790826;80;20924;-76
2021/10/13 11:24:44;;;;;;;8.65;5.78;;;;;;;17.49;38.93;97426.28;1794394;79;21005;-77
2021/10/13 11:27:10;;;;;;;7.30;5.37;;;;;;;18.27;36.85;97411.16;1768352;79;20987;-77
2021/10/13 11:29:37;;;;;;;9.90;5.95;;;;;;;18.77;35.88;97405.45;1789902;79;20986;-80
2021/10/13 11:32:15;;;;;;;8.33;5.37;;;;;;;18.56;37.30;97405.54;1789508;79;20980;-80
2021/10/13 11:34:57;;;;;;;8.68;5.45;;;;;;;18.39;40.10;97404.56;1789586;79;20984;-82
2021/10/13 11:37:26;;;;;;;7.47;5.53;;;;;;;18.43;40.94;97396.17;1786351;80;21039;-75
2021/10/13 11:39:52;;;;;;;8.05;5.55;;;;;;;18.38;41.73;97397.46;1790347;79;21402;-76
2021/10/13 11:42:23;;;;;;;7.42;5.42;;;;;;;18.64;39.83;97402.80;1789397;80;20968;-76